sensor_id;sensor_type;location;lat;lon;timestamp;temperature;humidity
10042;DHT22;5061;49.068;12.058;2024-02-26T00:03:00;2.60;99.90
10042;DHT22;5061;49.068;12.058;2024-02-26T00:06:21;2.60;99.90
10042;DHT22;5061;49.068;12.058;2024-02-26T00:09:42;2.50;99.90
10042;DHT22;5061;49.068;12.058;2024-02-26T00:13:02;2.50;99.90
10042;DHT22;5061;49.068;12.058;2024-02-26T00:16:23;2.50;99.90
10042;DHT22;5061;49.068;12.058;2024-02-26T00:19:44;2.40;99.90
10042;DHT22;5061;49.068;12.058;2024-02-26T00:23:05;2.40;99.90
10042;DHT22;5061;49.068;12.058;2024-02-26T00:26:25;2.40;99.90
10042;DHT22;5061;49.068;12.058;2024-02-26T00:29:46;2.40;99.90
10042;DHT22;5061;49.068;12.058;2024-02-26T00:33:06;2.40;99.90
10042;DHT22;5061;49.068;12.058;2024-02-26T00:36:27;2.30;99.90
10042;DHT22;5061;49.068;12.058;2024-02-26T00:39:48;2.30;99.90
10042;DHT22;5061;49.068;12.058;2024-02-26T00:43:08;2.30;99.90
10042;DHT22;5061;49.068;12.058;2024-02-26T00:46:29;2.30;99.90
10042;DHT22;5061;49.068;12.058;2024-02-26T00:49:49;2.20;99.90
10042;DHT22;5061;49.068;12.058;2024-02-26T00:53:10;2.20;99.90
10042;DHT22;5061;49.068;12.058;2024-02-26T00:56:31;2.20;99.90
10042;DHT22;5061;49.068;12.058;2024-02-26T00:59:51;2.20;99.90
10042;DHT22;5061;49.068;12.058;2024-02-26T01:03:12;2.10;99.90
10042;DHT22;5061;49.068;12.058;2024-02-26T01:06:32;2.10;99.90
10042;DHT22;5061;49.068;12.058;2024-02-26T01:09:53;2.10;99.90
10042;DHT22;5061;49.068;12.058;2024-02-26T01:13:14;2.00;99.90
10042;DHT22;5061;49.068;12.058;2024-02-26T01:16:34;2.00;99.90
10042;DHT22;5061;49.068;12.058;2024-02-26T01:19:55;1.90;99.90
10042;DHT22;5061;49.068;12.058;2024-02-26T01:23:16;1.90;99.90
10042;DHT22;5061;49.068;12.058;2024-02-26T01:26:37;1.90;99.90
10042;DHT22;5061;49.068;12.058;2024-02-26T01:29:57;1.90;99.90
10042;DHT22;5061;49.068;12.058;2024-02-26T01:33:18;1.90;99.90
10042;DHT22;5061;49.068;12.058;2024-02-26T01:36:38;1.80;99.90
10042;DHT22;5061;49.068;12.058;2024-02-26T01:39:59;1.80;99.90
10042;DHT22;5061;49.068;12.058;2024-02-26T01:43:20;1.80;99.90
10042;DHT22;5061;49.068;12.058;2024-02-26T01:46:40;1.80;99.90
10042;DHT22;5061;49.068;12.058;2024-02-26T01:50:01;1.70;99.90
10042;DHT22;5061;49.068;12.058;2024-02-26T01:53:22;1.70;99.90
10042;DHT22;5061;49.068;12.058;2024-02-26T01:56:43;1.80;99.90
10042;DHT22;5061;49.068;12.058;2024-02-26T02:00:04;1.80;99.90
10042;DHT22;5061;49.068;12.058;2024-02-26T02:03:26;1.80;99.90
10042;DHT22;5061;49.068;12.058;2024-02-26T02:06:47;1.70;99.90
10042;DHT22;5061;49.068;12.058;2024-02-26T02:10:09;1.70;99.90
10042;DHT22;5061;49.068;12.058;2024-02-26T02:13:30;1.60;99.90
10042;DHT22;5061;49.068;12.058;2024-02-26T02:16:50;1.60;99.90
10042;DHT22;5061;49.068;12.058;2024-02-26T02:20:17;1.50;99.90
10042;DHT22;5061;49.068;12.058;2024-02-26T02:23:38;1.50;99.90
10042;DHT22;5061;49.068;12.058;2024-02-26T02:26:59;1.50;99.90
10042;DHT22;5061;49.068;12.058;2024-02-26T02:30:21;1.50;99.90
10042;DHT22;5061;49.068;12.058;2024-02-26T02:33:44;1.50;99.90
10042;DHT22;5061;49.068;12.058;2024-02-26T02:37:05;1.50;99.90
10042;DHT22;5061;49.068;12.058;2024-02-26T02:40:25;1.50;99.90
10042;DHT22;5061;49.068;12.058;2024-02-26T02:43:46;1.50;99.90
10042;DHT22;5061;49.068;12.058;2024-02-26T02:47:06;1.50;99.90
10042;DHT22;5061;49.068;12.058;2024-02-26T02:50:27;1.50;99.90
10042;DHT22;5061;49.068;12.058;2024-02-26T02:53:49;1.60;99.90
10042;DHT22;5061;49.068;12.058;2024-02-26T02:57:09;1.60;99.90
10042;DHT22;5061;49.068;12.058;2024-02-26T03:00:30;1.60;99.90
10042;DHT22;5061;49.068;12.058;2024-02-26T03:03:51;1.60;99.90
10042;DHT22;5061;49.068;12.058;2024-02-26T03:07:11;1.60;99.90
10042;DHT22;5061;49.068;12.058;2024-02-26T03:10:32;1.60;99.90
10042;DHT22;5061;49.068;12.058;2024-02-26T03:13:53;1.60;99.90
10042;DHT22;5061;49.068;12.058;2024-02-26T03:17:13;1.60;99.90
10042;DHT22;5061;49.068;12.058;2024-02-26T03:20:34;1.60;99.90
10042;DHT22;5061;49.068;12.058;2024-02-26T03:23:55;1.60;99.90
10042;DHT22;5061;49.068;12.058;2024-02-26T03:27:16;1.50;99.90
10042;DHT22;5061;49.068;12.058;2024-02-26T03:30:36;1.40;99.90
10042;DHT22;5061;49.068;12.058;2024-02-26T03:33:57;1.40;99.90
10042;DHT22;5061;49.068;12.058;2024-02-26T03:37:17;1.40;99.90
10042;DHT22;5061;49.068;12.058;2024-02-26T03:40:38;1.40;99.90
10042;DHT22;5061;49.068;12.058;2024-02-26T03:43:59;1.30;99.90
10042;DHT22;5061;49.068;12.058;2024-02-26T03:47:19;1.30;99.90
10042;DHT22;5061;49.068;12.058;2024-02-26T03:50:40;1.30;99.90
10042;DHT22;5061;49.068;12.058;2024-02-26T03:54:01;1.20;99.90
10042;DHT22;5061;49.068;12.058;2024-02-26T03:57:23;1.20;99.90
10042;DHT22;5061;49.068;12.058;2024-02-26T04:00:44;1.20;99.90
10042;DHT22;5061;49.068;12.058;2024-02-26T04:04:06;1.20;99.90
10042;DHT22;5061;49.068;12.058;2024-02-26T04:07:26;1.20;99.90
10042;DHT22;5061;49.068;12.058;2024-02-26T04:10:47;1.20;99.90
10042;DHT22;5061;49.068;12.058;2024-02-26T04:14:08;1.20;99.90
10042;DHT22;5061;49.068;12.058;2024-02-26T04:17:29;1.20;99.90
10042;DHT22;5061;49.068;12.058;2024-02-26T04:20:50;1.30;99.90
10042;DHT22;5061;49.068;12.058;2024-02-26T04:24:11;1.20;99.90
10042;DHT22;5061;49.068;12.058;2024-02-26T04:27:32;1.30;99.90
10042;DHT22;5061;49.068;12.058;2024-02-26T04:30:53;1.30;99.90
10042;DHT22;5061;49.068;12.058;2024-02-26T04:34:13;1.30;99.90
10042;DHT22;5061;49.068;12.058;2024-02-26T04:37:34;1.30;99.90
10042;DHT22;5061;49.068;12.058;2024-02-26T04:40:55;1.30;99.90
10042;DHT22;5061;49.068;12.058;2024-02-26T04:44:15;1.30;99.90
10042;DHT22;5061;49.068;12.058;2024-02-26T04:47:36;1.20;99.90
10042;DHT22;5061;49.068;12.058;2024-02-26T04:50:57;1.20;99.90
10042;DHT22;5061;49.068;12.058;2024-02-26T04:54:17;1.20;99.90
10042;DHT22;5061;49.068;12.058;2024-02-26T04:57:38;1.10;99.90
10042;DHT22;5061;49.068;12.058;2024-02-26T05:00:58;1.10;99.90
10042;DHT22;5061;49.068;12.058;2024-02-26T05:04:19;1.10;99.90
10042;DHT22;5061;49.068;12.058;2024-02-26T05:07:41;1.10;99.90
10042;DHT22;5061;49.068;12.058;2024-02-26T05:11:02;1.10;99.90
10042;DHT22;5061;49.068;12.058;2024-02-26T05:14:23;1.10;99.90
10042;DHT22;5061;49.068;12.058;2024-02-26T05:17:44;1.00;99.90
10042;DHT22;5061;49.068;12.058;2024-02-26T05:21:05;1.00;99.90
10042;DHT22;5061;49.068;12.058;2024-02-26T05:24:26;1.00;99.90
10042;DHT22;5061;49.068;12.058;2024-02-26T05:27:46;0.90;99.90
10042;DHT22;5061;49.068;12.058;2024-02-26T05:31:07;0.90;99.90
10042;DHT22;5061;49.068;12.058;2024-02-26T05:34:28;0.90;99.90
10042;DHT22;5061;49.068;12.058;2024-02-26T05:37:50;0.80;99.90
10042;DHT22;5061;49.068;12.058;2024-02-26T05:41:11;0.80;99.90
10042;DHT22;5061;49.068;12.058;2024-02-26T05:44:31;0.70;99.90
10042;DHT22;5061;49.068;12.058;2024-02-26T05:47:52;0.60;99.90
10042;DHT22;5061;49.068;12.058;2024-02-26T05:51:12;0.50;99.90
10042;DHT22;5061;49.068;12.058;2024-02-26T05:54:33;0.40;99.90
10042;DHT22;5061;49.068;12.058;2024-02-26T05:57:54;0.40;99.90
10042;DHT22;5061;49.068;12.058;2024-02-26T06:01:16;0.40;99.90
10042;DHT22;5061;49.068;12.058;2024-02-26T06:04:39;0.40;99.90
10042;DHT22;5061;49.068;12.058;2024-02-26T06:08:00;0.40;99.90
10042;DHT22;5061;49.068;12.058;2024-02-26T06:11:21;0.40;99.90
10042;DHT22;5061;49.068;12.058;2024-02-26T06:14:43;0.40;99.90
10042;DHT22;5061;49.068;12.058;2024-02-26T06:18:03;0.40;99.90
10042;DHT22;5061;49.068;12.058;2024-02-26T06:21:24;0.50;99.90
10042;DHT22;5061;49.068;12.058;2024-02-26T06:24:45;0.50;99.90
10042;DHT22;5061;49.068;12.058;2024-02-26T06:31:59;0.50;99.90
10042;DHT22;5061;49.068;12.058;2024-02-26T06:35:22;0.50;99.90
10042;DHT22;5061;49.068;12.058;2024-02-26T06:39:05;0.50;99.90
10042;DHT22;5061;49.068;12.058;2024-02-26T06:42:28;0.50;99.90
10042;DHT22;5061;49.068;12.058;2024-02-26T06:45:49;0.60;99.90
10042;DHT22;5061;49.068;12.058;2024-02-26T06:49:10;0.60;99.90
10042;DHT22;5061;49.068;12.058;2024-02-26T06:52:31;0.60;99.90
10042;DHT22;5061;49.068;12.058;2024-02-26T06:55:51;0.70;99.90
10042;DHT22;5061;49.068;12.058;2024-02-26T06:59:12;0.70;99.90
10042;DHT22;5061;49.068;12.058;2024-02-26T07:02:32;0.80;99.90
10042;DHT22;5061;49.068;12.058;2024-02-26T07:05:53;0.70;99.90
10042;DHT22;5061;49.068;12.058;2024-02-26T07:09:14;0.70;99.90
10042;DHT22;5061;49.068;12.058;2024-02-26T07:12:34;0.70;99.90
10042;DHT22;5061;49.068;12.058;2024-02-26T07:15:55;0.70;99.90
10042;DHT22;5061;49.068;12.058;2024-02-26T07:19:16;0.70;99.90
10042;DHT22;5061;49.068;12.058;2024-02-26T07:22:37;0.70;99.90
10042;DHT22;5061;49.068;12.058;2024-02-26T07:25:57;0.80;99.90
10042;DHT22;5061;49.068;12.058;2024-02-26T07:29:18;0.80;99.90
10042;DHT22;5061;49.068;12.058;2024-02-26T07:32:39;0.90;99.90
10042;DHT22;5061;49.068;12.058;2024-02-26T07:35:59;1.00;99.90
10042;DHT22;5061;49.068;12.058;2024-02-26T07:39:20;1.00;99.90
10042;DHT22;5061;49.068;12.058;2024-02-26T07:42:41;1.00;99.90
10042;DHT22;5061;49.068;12.058;2024-02-26T07:46:01;1.10;99.90
10042;DHT22;5061;49.068;12.058;2024-02-26T07:49:22;1.10;99.90
10042;DHT22;5061;49.068;12.058;2024-02-26T07:52:42;1.20;99.90
10042;DHT22;5061;49.068;12.058;2024-02-26T07:56:03;1.20;99.90
10042;DHT22;5061;49.068;12.058;2024-02-26T07:59:24;1.30;99.90
10042;DHT22;5061;49.068;12.058;2024-02-26T08:02:44;1.30;99.90
10042;DHT22;5061;49.068;12.058;2024-02-26T08:06:05;1.30;99.90
10042;DHT22;5061;49.068;12.058;2024-02-26T08:09:26;1.40;99.90
10042;DHT22;5061;49.068;12.058;2024-02-26T08:12:46;1.60;99.90
10042;DHT22;5061;49.068;12.058;2024-02-26T08:16:07;1.80;99.90
10042;DHT22;5061;49.068;12.058;2024-02-26T08:19:28;2.00;99.90
10042;DHT22;5061;49.068;12.058;2024-02-26T08:22:48;2.30;99.90
10042;DHT22;5061;49.068;12.058;2024-02-26T08:26:09;2.40;99.90
10042;DHT22;5061;49.068;12.058;2024-02-26T08:29:31;2.70;99.90
10042;DHT22;5061;49.068;12.058;2024-02-26T08:32:52;2.80;99.90
10042;DHT22;5061;49.068;12.058;2024-02-26T08:36:13;3.00;99.90
10042;DHT22;5061;49.068;12.058;2024-02-26T08:39:33;3.10;99.90
10042;DHT22;5061;49.068;12.058;2024-02-26T08:42:54;3.30;99.90
10042;DHT22;5061;49.068;12.058;2024-02-26T08:46:15;3.40;99.90
10042;DHT22;5061;49.068;12.058;2024-02-26T08:49:36;3.50;99.90
10042;DHT22;5061;49.068;12.058;2024-02-26T08:52:56;3.60;99.90
10042;DHT22;5061;49.068;12.058;2024-02-26T08:56:17;3.80;99.90
10042;DHT22;5061;49.068;12.058;2024-02-26T08:59:38;3.90;99.90
10042;DHT22;5061;49.068;12.058;2024-02-26T09:02:58;4.00;99.90
10042;DHT22;5061;49.068;12.058;2024-02-26T09:06:19;4.10;99.90
10042;DHT22;5061;49.068;12.058;2024-02-26T09:09:40;4.20;99.90
10042;DHT22;5061;49.068;12.058;2024-02-26T09:13:01;4.30;99.90
10042;DHT22;5061;49.068;12.058;2024-02-26T09:16:21;4.40;99.90
10042;DHT22;5061;49.068;12.058;2024-02-26T09:19:42;4.60;99.90
10042;DHT22;5061;49.068;12.058;2024-02-26T09:23:04;4.70;99.90
10042;DHT22;5061;49.068;12.058;2024-02-26T09:26:24;4.90;99.90
10042;DHT22;5061;49.068;12.058;2024-02-26T09:29:45;5.10;99.90
10042;DHT22;5061;49.068;12.058;2024-02-26T09:33:06;5.20;99.90
10042;DHT22;5061;49.068;12.058;2024-02-26T09:36:27;5.30;99.90
10042;DHT22;5061;49.068;12.058;2024-02-26T09:39:48;5.40;99.90
10042;DHT22;5061;49.068;12.058;2024-02-26T09:43:14;5.40;99.90
10042;DHT22;5061;49.068;12.058;2024-02-26T09:46:35;5.50;99.90
10042;DHT22;5061;49.068;12.058;2024-02-26T09:49:56;5.70;99.90
10042;DHT22;5061;49.068;12.058;2024-02-26T09:53:18;5.70;99.90
10042;DHT22;5061;49.068;12.058;2024-02-26T09:56:42;5.80;99.90
10042;DHT22;5061;49.068;12.058;2024-02-26T10:00:04;5.90;99.90
10042;DHT22;5061;49.068;12.058;2024-02-26T10:03:40;6.00;99.90
10042;DHT22;5061;49.068;12.058;2024-02-26T10:07:01;6.20;99.90
10042;DHT22;5061;49.068;12.058;2024-02-26T10:10:24;6.30;99.90
10042;DHT22;5061;49.068;12.058;2024-02-26T10:13:45;6.40;99.90
10042;DHT22;5061;49.068;12.058;2024-02-26T10:17:07;6.50;99.90
10042;DHT22;5061;49.068;12.058;2024-02-26T10:20:29;6.60;99.90
10042;DHT22;5061;49.068;12.058;2024-02-26T10:23:52;6.70;99.90
10042;DHT22;5061;49.068;12.058;2024-02-26T10:27:12;6.80;99.90
10042;DHT22;5061;49.068;12.058;2024-02-26T10:30:36;6.90;99.90
10042;DHT22;5061;49.068;12.058;2024-02-26T10:33:57;7.10;99.90
10042;DHT22;5061;49.068;12.058;2024-02-26T10:37:18;7.20;99.90
10042;DHT22;5061;49.068;12.058;2024-02-26T10:40:38;7.30;99.90
10042;DHT22;5061;49.068;12.058;2024-02-26T10:43:59;7.40;99.90
10042;DHT22;5061;49.068;12.058;2024-02-26T10:47:20;7.50;99.90
10042;DHT22;5061;49.068;12.058;2024-02-26T10:50:41;7.50;99.90
10042;DHT22;5061;49.068;12.058;2024-02-26T10:54:02;7.60;99.90
10042;DHT22;5061;49.068;12.058;2024-02-26T10:57:31;7.60;99.90
10042;DHT22;5061;49.068;12.058;2024-02-26T11:00:53;7.70;99.90
10042;DHT22;5061;49.068;12.058;2024-02-26T11:04:17;7.90;99.90
10042;DHT22;5061;49.068;12.058;2024-02-26T11:07:38;7.90;99.90
10042;DHT22;5061;49.068;12.058;2024-02-26T11:11:01;8.00;99.90
10042;DHT22;5061;49.068;12.058;2024-02-26T11:14:24;8.20;99.90
10042;DHT22;5061;49.068;12.058;2024-02-26T11:17:46;8.30;99.90
10042;DHT22;5061;49.068;12.058;2024-02-26T11:21:08;8.50;99.90
10042;DHT22;5061;49.068;12.058;2024-02-26T11:24:30;8.60;99.90
10042;DHT22;5061;49.068;12.058;2024-02-26T11:27:55;8.80;99.90
10042;DHT22;5061;49.068;12.058;2024-02-26T11:31:18;8.90;99.90
10042;DHT22;5061;49.068;12.058;2024-02-26T11:34:46;9.00;99.90
10042;DHT22;5061;49.068;12.058;2024-02-26T11:38:07;9.10;99.90
10042;DHT22;5061;49.068;12.058;2024-02-26T11:41:28;9.00;99.90
10042;DHT22;5061;49.068;12.058;2024-02-26T11:44:48;9.20;99.90
10042;DHT22;5061;49.068;12.058;2024-02-26T11:48:16;9.20;99.90
10042;DHT22;5061;49.068;12.058;2024-02-26T11:51:42;9.30;99.90
10042;DHT22;5061;49.068;12.058;2024-02-26T11:55:02;9.40;99.90
10042;DHT22;5061;49.068;12.058;2024-02-26T11:58:23;9.40;99.90
10042;DHT22;5061;49.068;12.058;2024-02-26T12:01:46;9.40;99.90
10042;DHT22;5061;49.068;12.058;2024-02-26T12:05:18;9.40;99.90
10042;DHT22;5061;49.068;12.058;2024-02-26T12:08:39;9.30;99.90
10042;DHT22;5061;49.068;12.058;2024-02-26T12:12:17;9.30;99.90
10042;DHT22;5061;49.068;12.058;2024-02-26T12:15:40;9.30;99.90
10042;DHT22;5061;49.068;12.058;2024-02-26T12:19:04;9.20;99.90
10042;DHT22;5061;49.068;12.058;2024-02-26T12:22:25;9.30;99.90
10042;DHT22;5061;49.068;12.058;2024-02-26T12:25:47;9.30;99.90
10042;DHT22;5061;49.068;12.058;2024-02-26T12:29:08;9.30;99.90
10042;DHT22;5061;49.068;12.058;2024-02-26T12:32:30;9.30;99.90
10042;DHT22;5061;49.068;12.058;2024-02-26T12:35:51;9.40;99.90
10042;DHT22;5061;49.068;12.058;2024-02-26T12:39:11;9.40;99.90
10042;DHT22;5061;49.068;12.058;2024-02-26T12:42:32;9.50;99.90
10042;DHT22;5061;49.068;12.058;2024-02-26T12:46:03;9.50;99.90
10042;DHT22;5061;49.068;12.058;2024-02-26T12:49:24;9.60;99.90
10042;DHT22;5061;49.068;12.058;2024-02-26T12:52:47;9.60;99.90
10042;DHT22;5061;49.068;12.058;2024-02-26T12:56:09;9.60;99.90
10042;DHT22;5061;49.068;12.058;2024-02-26T12:59:30;9.80;99.90
10042;DHT22;5061;49.068;12.058;2024-02-26T13:02:51;10.10;99.90
10042;DHT22;5061;49.068;12.058;2024-02-26T13:06:15;10.50;99.90
10042;DHT22;5061;49.068;12.058;2024-02-26T13:09:36;10.80;99.90
10042;DHT22;5061;49.068;12.058;2024-02-26T13:12:57;11.10;99.90
10042;DHT22;5061;49.068;12.058;2024-02-26T13:16:17;11.30;99.90
10042;DHT22;5061;49.068;12.058;2024-02-26T13:19:49;11.60;99.90
10042;DHT22;5061;49.068;12.058;2024-02-26T13:23:13;11.80;99.90
10042;DHT22;5061;49.068;12.058;2024-02-26T13:26:33;12.00;99.90
10042;DHT22;5061;49.068;12.058;2024-02-26T13:30:11;12.00;99.90
10042;DHT22;5061;49.068;12.058;2024-02-26T13:33:32;12.00;99.90
10042;DHT22;5061;49.068;12.058;2024-02-26T13:36:56;11.90;99.90
10042;DHT22;5061;49.068;12.058;2024-02-26T13:40:17;11.90;99.90
10042;DHT22;5061;49.068;12.058;2024-02-26T13:43:37;12.00;99.90
10042;DHT22;5061;49.068;12.058;2024-02-26T13:46:58;12.20;99.90
10042;DHT22;5061;49.068;12.058;2024-02-26T13:50:20;12.10;99.90
10042;DHT22;5061;49.068;12.058;2024-02-26T13:53:43;12.10;99.90
10042;DHT22;5061;49.068;12.058;2024-02-26T13:57:04;12.00;99.90
10042;DHT22;5061;49.068;12.058;2024-02-26T14:00:26;12.00;99.90
10042;DHT22;5061;49.068;12.058;2024-02-26T14:03:47;11.90;99.90
10042;DHT22;5061;49.068;12.058;2024-02-26T14:07:08;12.00;99.90
10042;DHT22;5061;49.068;12.058;2024-02-26T14:10:30;12.10;99.90
10042;DHT22;5061;49.068;12.058;2024-02-26T14:13:52;12.10;99.90
10042;DHT22;5061;49.068;12.058;2024-02-26T14:17:12;12.10;99.90
10042;DHT22;5061;49.068;12.058;2024-02-26T14:20:34;12.10;99.90
10042;DHT22;5061;49.068;12.058;2024-02-26T14:23:55;12.10;99.90
10042;DHT22;5061;49.068;12.058;2024-02-26T14:27:16;12.10;99.90
10042;DHT22;5061;49.068;12.058;2024-02-26T14:30:37;12.10;99.90
10042;DHT22;5061;49.068;12.058;2024-02-26T14:33:58;12.00;99.90
10042;DHT22;5061;49.068;12.058;2024-02-26T14:37:24;12.00;99.90
10042;DHT22;5061;49.068;12.058;2024-02-26T14:40:45;11.90;99.90
10042;DHT22;5061;49.068;12.058;2024-02-26T14:44:06;11.80;99.90
10042;DHT22;5061;49.068;12.058;2024-02-26T14:47:26;11.60;99.90
10042;DHT22;5061;49.068;12.058;2024-02-26T14:50:47;11.50;99.90
10042;DHT22;5061;49.068;12.058;2024-02-26T14:54:08;11.40;99.90
10042;DHT22;5061;49.068;12.058;2024-02-26T14:57:28;11.30;99.90
10042;DHT22;5061;49.068;12.058;2024-02-26T15:00:49;11.30;99.90
10042;DHT22;5061;49.068;12.058;2024-02-26T15:04:09;11.20;99.90
10042;DHT22;5061;49.068;12.058;2024-02-26T15:07:30;11.10;99.90
10042;DHT22;5061;49.068;12.058;2024-02-26T15:10:51;10.90;99.90
10042;DHT22;5061;49.068;12.058;2024-02-26T15:14:12;10.70;99.90
10042;DHT22;5061;49.068;12.058;2024-02-26T15:17:32;10.60;99.90
10042;DHT22;5061;49.068;12.058;2024-02-26T15:20:55;10.40;99.90
10042;DHT22;5061;49.068;12.058;2024-02-26T15:24:16;10.20;99.90
10042;DHT22;5061;49.068;12.058;2024-02-26T15:27:37;10.10;99.90
10042;DHT22;5061;49.068;12.058;2024-02-26T15:30:58;10.00;99.90
10042;DHT22;5061;49.068;12.058;2024-02-26T15:34:18;9.90;99.90
10042;DHT22;5061;49.068;12.058;2024-02-26T15:37:39;9.80;99.90
10042;DHT22;5061;49.068;12.058;2024-02-26T15:40:59;9.70;99.90
10042;DHT22;5061;49.068;12.058;2024-02-26T15:44:20;9.60;99.90
10042;DHT22;5061;49.068;12.058;2024-02-26T15:47:42;9.50;99.90
10042;DHT22;5061;49.068;12.058;2024-02-26T15:51:03;9.40;99.90
10042;DHT22;5061;49.068;12.058;2024-02-26T15:54:24;9.30;99.90
10042;DHT22;5061;49.068;12.058;2024-02-26T15:57:44;9.30;99.90
10042;DHT22;5061;49.068;12.058;2024-02-26T16:01:05;9.20;99.90
10042;DHT22;5061;49.068;12.058;2024-02-26T16:04:26;9.10;99.90
10042;DHT22;5061;49.068;12.058;2024-02-26T16:07:51;9.00;99.90
10042;DHT22;5061;49.068;12.058;2024-02-26T16:11:13;9.00;99.90
10042;DHT22;5061;49.068;12.058;2024-02-26T16:14:50;8.90;99.90
10042;DHT22;5061;49.068;12.058;2024-02-26T16:18:11;8.80;99.90
10042;DHT22;5061;49.068;12.058;2024-02-26T16:21:31;8.70;99.90
10042;DHT22;5061;49.068;12.058;2024-02-26T16:24:52;8.60;99.90
10042;DHT22;5061;49.068;12.058;2024-02-26T16:28:12;8.50;99.90
10042;DHT22;5061;49.068;12.058;2024-02-26T16:31:33;8.40;99.90
10042;DHT22;5061;49.068;12.058;2024-02-26T16:34:54;8.30;99.90
10042;DHT22;5061;49.068;12.058;2024-02-26T16:38:15;8.30;99.90
10042;DHT22;5061;49.068;12.058;2024-02-26T16:41:35;8.10;99.90
10042;DHT22;5061;49.068;12.058;2024-02-26T16:44:56;8.00;99.90
10042;DHT22;5061;49.068;12.058;2024-02-26T16:48:17;8.00;99.90
10042;DHT22;5061;49.068;12.058;2024-02-26T16:51:38;7.90;99.90
10042;DHT22;5061;49.068;12.058;2024-02-26T16:54:59;7.80;99.90
10042;DHT22;5061;49.068;12.058;2024-02-26T16:58:20;7.70;99.90
10042;DHT22;5061;49.068;12.058;2024-02-26T17:01:47;7.60;99.90
10042;DHT22;5061;49.068;12.058;2024-02-26T17:05:08;7.60;99.90
10042;DHT22;5061;49.068;12.058;2024-02-26T17:08:30;7.50;99.90
10042;DHT22;5061;49.068;12.058;2024-02-26T17:11:53;7.40;99.90
10042;DHT22;5061;49.068;12.058;2024-02-26T17:15:14;7.30;99.90
10042;DHT22;5061;49.068;12.058;2024-02-26T17:18:35;7.20;99.90
10042;DHT22;5061;49.068;12.058;2024-02-26T17:21:56;7.10;99.90
10042;DHT22;5061;49.068;12.058;2024-02-26T17:25:16;7.10;99.90
10042;DHT22;5061;49.068;12.058;2024-02-26T17:28:37;7.00;99.90
10042;DHT22;5061;49.068;12.058;2024-02-26T17:32:02;6.90;99.90
10042;DHT22;5061;49.068;12.058;2024-02-26T17:35:23;6.90;99.90
10042;DHT22;5061;49.068;12.058;2024-02-26T17:38:44;6.80;99.90
10042;DHT22;5061;49.068;12.058;2024-02-26T17:42:06;6.80;99.90
10042;DHT22;5061;49.068;12.058;2024-02-26T17:45:27;6.70;99.90
10042;DHT22;5061;49.068;12.058;2024-02-26T17:48:49;6.70;99.90
10042;DHT22;5061;49.068;12.058;2024-02-26T17:52:10;6.60;99.90
10042;DHT22;5061;49.068;12.058;2024-02-26T17:55:30;6.50;99.90
10042;DHT22;5061;49.068;12.058;2024-02-26T17:58:51;6.50;99.90
10042;DHT22;5061;49.068;12.058;2024-02-26T18:02:12;6.40;99.90
10042;DHT22;5061;49.068;12.058;2024-02-26T18:05:32;6.40;99.90
10042;DHT22;5061;49.068;12.058;2024-02-26T18:08:53;6.30;99.90
10042;DHT22;5061;49.068;12.058;2024-02-26T18:12:14;6.40;99.90
10042;DHT22;5061;49.068;12.058;2024-02-26T18:15:34;6.30;99.90
10042;DHT22;5061;49.068;12.058;2024-02-26T18:18:55;6.30;99.90
10042;DHT22;5061;49.068;12.058;2024-02-26T18:22:15;6.20;99.90
10042;DHT22;5061;49.068;12.058;2024-02-26T18:25:36;6.10;99.90
10042;DHT22;5061;49.068;12.058;2024-02-26T18:28:56;6.10;99.90
10042;DHT22;5061;49.068;12.058;2024-02-26T18:32:17;6.00;99.90
10042;DHT22;5061;49.068;12.058;2024-02-26T18:35:38;6.00;99.90
10042;DHT22;5061;49.068;12.058;2024-02-26T18:38:58;6.00;99.90
10042;DHT22;5061;49.068;12.058;2024-02-26T18:42:19;5.90;99.90
10042;DHT22;5061;49.068;12.058;2024-02-26T18:45:40;5.90;99.90
10042;DHT22;5061;49.068;12.058;2024-02-26T18:49:02;5.90;99.90
10042;DHT22;5061;49.068;12.058;2024-02-26T18:52:23;5.80;99.90
10042;DHT22;5061;49.068;12.058;2024-02-26T18:55:45;5.80;99.90
10042;DHT22;5061;49.068;12.058;2024-02-26T18:59:05;5.80;99.90
10042;DHT22;5061;49.068;12.058;2024-02-26T19:02:28;5.70;99.90
10042;DHT22;5061;49.068;12.058;2024-02-26T19:05:49;5.70;99.90
10042;DHT22;5061;49.068;12.058;2024-02-26T19:09:10;5.70;99.90
10042;DHT22;5061;49.068;12.058;2024-02-26T19:12:30;5.70;99.90
10042;DHT22;5061;49.068;12.058;2024-02-26T19:15:51;5.70;99.90
10042;DHT22;5061;49.068;12.058;2024-02-26T19:19:12;5.70;99.90
10042;DHT22;5061;49.068;12.058;2024-02-26T19:22:33;5.60;99.90
10042;DHT22;5061;49.068;12.058;2024-02-26T19:25:54;5.60;99.90
10042;DHT22;5061;49.068;12.058;2024-02-26T19:29:15;5.60;99.90
10042;DHT22;5061;49.068;12.058;2024-02-26T19:32:35;5.60;99.90
10042;DHT22;5061;49.068;12.058;2024-02-26T19:35:56;5.50;99.90
10042;DHT22;5061;49.068;12.058;2024-02-26T19:39:16;5.60;99.90
10042;DHT22;5061;49.068;12.058;2024-02-26T19:42:37;5.50;99.90
10042;DHT22;5061;49.068;12.058;2024-02-26T19:45:58;5.50;99.90
10042;DHT22;5061;49.068;12.058;2024-02-26T19:49:19;5.50;99.90
10042;DHT22;5061;49.068;12.058;2024-02-26T19:52:39;5.50;99.90
10042;DHT22;5061;49.068;12.058;2024-02-26T19:56:00;5.40;99.90
10042;DHT22;5061;49.068;12.058;2024-02-26T19:59:21;5.40;99.90
10042;DHT22;5061;49.068;12.058;2024-02-26T20:02:42;5.40;99.90
10042;DHT22;5061;49.068;12.058;2024-02-26T20:06:02;5.40;99.90
10042;DHT22;5061;49.068;12.058;2024-02-26T20:09:23;5.40;99.90
10042;DHT22;5061;49.068;12.058;2024-02-26T20:12:48;5.40;99.90
10042;DHT22;5061;49.068;12.058;2024-02-26T20:16:08;5.30;99.90
10042;DHT22;5061;49.068;12.058;2024-02-26T20:19:29;5.40;99.90
10042;DHT22;5061;49.068;12.058;2024-02-26T20:22:49;5.30;99.90
10042;DHT22;5061;49.068;12.058;2024-02-26T20:26:10;5.30;99.90
10042;DHT22;5061;49.068;12.058;2024-02-26T20:29:32;5.20;99.90
10042;DHT22;5061;49.068;12.058;2024-02-26T20:32:53;5.20;99.90
10042;DHT22;5061;49.068;12.058;2024-02-26T20:36:14;5.20;99.90
10042;DHT22;5061;49.068;12.058;2024-02-26T20:39:34;5.20;99.90
10042;DHT22;5061;49.068;12.058;2024-02-26T20:42:55;5.10;99.90
10042;DHT22;5061;49.068;12.058;2024-02-26T20:46:16;5.10;99.90
10042;DHT22;5061;49.068;12.058;2024-02-26T20:49:36;5.10;99.90
10042;DHT22;5061;49.068;12.058;2024-02-26T20:52:57;5.10;99.90
10042;DHT22;5061;49.068;12.058;2024-02-26T20:56:18;5.10;99.90
10042;DHT22;5061;49.068;12.058;2024-02-26T20:59:39;5.00;99.90
10042;DHT22;5061;49.068;12.058;2024-02-26T21:03:01;5.00;99.90
10042;DHT22;5061;49.068;12.058;2024-02-26T21:06:28;5.00;99.90
10042;DHT22;5061;49.068;12.058;2024-02-26T21:09:49;5.00;99.90
10042;DHT22;5061;49.068;12.058;2024-02-26T21:13:12;5.00;99.90
10042;DHT22;5061;49.068;12.058;2024-02-26T21:16:33;4.90;99.90
10042;DHT22;5061;49.068;12.058;2024-02-26T21:19:54;4.90;99.90
10042;DHT22;5061;49.068;12.058;2024-02-26T21:23:15;4.80;99.90
10042;DHT22;5061;49.068;12.058;2024-02-26T21:26:36;4.80;99.90
10042;DHT22;5061;49.068;12.058;2024-02-26T21:29:57;4.80;99.90
10042;DHT22;5061;49.068;12.058;2024-02-26T21:33:17;4.70;99.90
10042;DHT22;5061;49.068;12.058;2024-02-26T21:36:38;4.70;99.90